createdAt,value
2018-07-22T00:01:11.542Z,21.50
2018-07-22T00:06:14.818Z,21.50
2018-07-22T00:11:18.118Z,21.30
2018-07-22T00:16:21.486Z,21.30
2018-07-22T00:21:24.779Z,21.30
2018-07-22T00:26:28.110Z,21.10
2018-07-22T00:31:31.390Z,21.30
2018-07-22T00:36:34.662Z,21.10
2018-07-22T00:41:37.918Z,21.30
2018-07-22T00:46:41.179Z,21.60
2018-07-22T00:51:44.425Z,22.20
2018-07-22T00:56:47.690Z,22.00
2018-07-22T01:01:51.054Z,21.80
2018-07-22T01:06:54.395Z,21.50
2018-07-22T01:11:57.679Z,21.10
2018-07-22T01:17:00.920Z,21.10
2018-07-22T01:22:04.386Z,21.00
2018-07-22T01:27:07.894Z,21.00
2018-07-22T01:32:11.523Z,20.90
2018-07-22T01:37:14.766Z,20.80
2018-07-22T01:42:18.167Z,20.80
2018-07-22T01:47:21.426Z,20.80
2018-07-22T01:52:24.683Z,20.70
2018-07-22T01:57:27.921Z,20.40
2018-07-22T02:02:31.196Z,20.40
2018-07-22T02:07:34.472Z,20.50
2018-07-22T02:12:37.721Z,20.50
2018-07-22T02:17:40.966Z,20.50
2018-07-22T02:22:44.204Z,20.10
2018-07-22T02:27:47.474Z,20.30
2018-07-22T02:32:50.719Z,20.10
2018-07-22T02:37:53.979Z,20.00
2018-07-22T02:42:57.256Z,19.90
2018-07-22T02:48:00.536Z,19.90
2018-07-22T02:53:03.838Z,20.10
2018-07-22T02:58:07.166Z,20.20
2018-07-22T03:03:10.421Z,20.10
2018-07-22T03:08:13.735Z,19.70
2018-07-22T03:13:17.000Z,20.40
2018-07-22T03:18:20.242Z,20.00
2018-07-22T03:23:23.507Z,20.30
2018-07-22T03:28:26.744Z,20.70
2018-07-22T03:33:30.000Z,20.50
2018-07-22T03:38:33.242Z,20.10
2018-07-22T03:43:36.513Z,20.40
2018-07-22T03:48:39.839Z,20.40
2018-07-22T03:53:43.132Z,19.70
2018-07-22T03:58:46.383Z,20.00
2018-07-22T04:03:49.630Z,19.80
2018-07-22T04:08:52.867Z,19.70
2018-07-22T04:13:56.122Z,19.70
2018-07-22T04:18:59.386Z,19.50
2018-07-22T04:24:02.622Z,19.40
2018-07-22T04:29:05.877Z,18.90
2018-07-22T04:34:09.179Z,18.90
2018-07-22T04:39:12.414Z,19.10
2018-07-22T04:44:15.798Z,19.30
2018-07-22T04:49:19.059Z,19.50
2018-07-22T04:54:22.307Z,19.70
2018-07-22T04:59:25.533Z,19.50
2018-07-22T05:04:28.782Z,19.90
2018-07-22T05:09:32.030Z,20.30
2018-07-22T05:14:35.307Z,20.70
2018-07-22T05:19:38.586Z,20.80
2018-07-22T05:24:41.930Z,21.20
2018-07-22T05:29:45.166Z,21.40
2018-07-22T05:34:48.543Z,21.60
2018-07-22T05:39:51.791Z,21.70
2018-07-22T05:44:55.070Z,21.80
2018-07-22T05:49:58.338Z,22.10
2018-07-22T05:55:01.704Z,22.60
2018-07-22T06:00:06.328Z,22.40
2018-07-22T06:05:09.616Z,22.90
2018-07-22T06:10:12.882Z,23.40
2018-07-22T06:15:16.253Z,23.70
2018-07-22T06:20:19.557Z,23.50
2018-07-22T06:25:22.831Z,23.70
2018-07-22T06:30:26.328Z,24.20
2018-07-22T06:35:29.571Z,24.30
2018-07-22T06:40:32.924Z,24.60
2018-07-22T06:45:36.177Z,24.90
2018-07-22T06:50:39.514Z,24.90
2018-07-22T06:55:42.829Z,25.00
2018-07-22T07:00:46.170Z,25.20
2018-07-22T07:05:49.430Z,25.60
2018-07-22T07:10:52.786Z,25.50
2018-07-22T07:15:56.291Z,25.20
2018-07-22T07:20:59.603Z,25.60
2018-07-22T07:26:02.886Z,25.20
2018-07-22T07:31:06.403Z,25.90
2018-07-22T07:36:09.642Z,25.70
2018-07-22T07:41:13.173Z,25.90
2018-07-22T07:46:16.570Z,26.30
2018-07-22T07:51:19.890Z,26.00
2018-07-22T07:56:23.256Z,26.30
2018-07-22T08:01:41.327Z,25.70
2018-07-22T08:06:44.991Z,24.90
2018-07-22T08:11:48.241Z,25.30
2018-07-22T08:16:51.650Z,25.80
2018-07-22T08:21:55.217Z,26.10
2018-07-22T08:26:58.229Z,26.20
2018-07-22T08:32:02.297Z,26.30
2018-07-22T08:37:05.606Z,25.50
2018-07-22T08:42:08.883Z,26.50
2018-07-22T08:47:12.263Z,26.50
2018-07-22T08:52:15.731Z,24.70
2018-07-22T08:57:19.042Z,26.30
2018-07-22T09:02:22.362Z,26.50
2018-07-22T09:07:25.611Z,26.50
2018-07-22T09:12:28.986Z,26.80
2018-07-22T09:17:32.287Z,26.90
2018-07-22T09:22:35.585Z,25.80
2018-07-22T09:27:53.057Z,27.50
2018-07-22T09:33:20.774Z,27.70
2018-07-22T09:38:25.430Z,26.90
2018-07-22T09:43:29.099Z,27.80
2018-07-22T09:48:32.423Z,27.80
2018-07-22T09:53:54.794Z,28.00
2018-07-22T09:59:00.463Z,28.40
2018-07-22T10:04:03.781Z,28.50
2018-07-22T10:09:08.655Z,28.20
2018-07-22T10:14:11.956Z,26.90
2018-07-22T10:19:15.314Z,26.50
2018-07-22T10:24:18.603Z,26.30
2018-07-22T10:29:22.043Z,27.40
2018-07-22T10:34:25.314Z,28.50
2018-07-22T10:39:28.586Z,29.40
2018-07-22T10:44:31.863Z,29.50
2018-07-22T10:49:35.634Z,29.50
2018-07-22T10:54:39.887Z,27.10
2018-07-22T10:59:43.222Z,29.20
2018-07-22T11:04:46.621Z,27.40
2018-07-22T11:09:49.882Z,27.80
2018-07-22T11:14:53.327Z,27.40
2018-07-22T11:19:56.627Z,29.80
2018-07-22T11:24:59.886Z,28.30
2018-07-22T11:30:03.267Z,28.40
2018-07-22T11:35:06.534Z,28.50
2018-07-22T11:40:10.517Z,27.30
2018-07-22T11:45:13.767Z,27.50
2018-07-22T11:50:17.116Z,30.10
2018-07-22T11:55:20.395Z,29.40
2018-07-22T12:00:23.716Z,29.80
2018-07-22T12:05:26.960Z,29.60
2018-07-22T12:10:30.203Z,30.60
2018-07-22T12:15:33.453Z,30.30
2018-07-22T12:20:36.798Z,29.00
2018-07-22T12:25:40.055Z,30.00
2018-07-22T12:30:43.319Z,30.20
2018-07-22T12:35:46.647Z,28.70
2018-07-22T12:40:49.901Z,29.20
2018-07-22T12:45:53.187Z,28.60
2018-07-22T12:50:56.470Z,28.40
2018-07-22T12:55:59.726Z,28.40
2018-07-22T13:01:02.974Z,28.80
2018-07-22T13:06:06.279Z,28.50
2018-07-22T13:11:09.578Z,28.00
2018-07-22T13:16:12.870Z,27.90
2018-07-22T13:21:16.146Z,28.60
2018-07-22T13:26:19.673Z,28.90
2018-07-22T13:31:22.962Z,28.00
2018-07-22T13:41:29.222Z,27.60
2018-07-22T13:46:32.499Z,28.70
2018-07-22T13:51:35.922Z,29.30
2018-07-22T13:56:39.222Z,28.20
2018-07-22T14:01:42.465Z,31.30
2018-07-22T14:06:45.709Z,29.90
2018-07-22T14:11:48.966Z,29.20
2018-07-22T14:16:52.237Z,30.10
2018-07-22T14:21:55.617Z,30.70
2018-07-22T14:26:58.851Z,30.30
2018-07-22T14:32:02.106Z,31.00
2018-07-22T14:37:05.447Z,30.50
2018-07-22T14:42:08.699Z,30.50
2018-07-22T14:47:12.049Z,28.30
2018-07-22T14:57:18.549Z,29.20
2018-07-22T15:02:21.791Z,27.90
2018-07-22T15:07:25.380Z,27.90
2018-07-22T15:12:28.653Z,27.80
2018-07-22T15:17:31.924Z,28.10
2018-07-22T15:22:35.166Z,28.10
2018-07-22T15:27:38.442Z,27.60
2018-07-22T15:32:41.764Z,27.90
2018-07-22T15:42:48.141Z,28.10
2018-07-22T15:47:51.520Z,28.10
2018-07-22T15:53:01.486Z,27.90
2018-07-22T15:58:05.834Z,28.00
2018-07-22T16:03:09.295Z,27.90
2018-07-22T16:08:12.700Z,28.10
2018-07-22T16:13:16.275Z,28.00
2018-07-22T16:18:20.118Z,28.00
2018-07-22T16:23:23.410Z,27.70
2018-07-22T16:28:26.688Z,27.70
2018-07-22T16:33:30.026Z,27.40
2018-07-22T16:38:33.286Z,27.70
2018-07-22T16:43:36.570Z,27.70
2018-07-22T16:48:39.834Z,28.00
2018-07-22T16:53:43.077Z,27.50
2018-07-22T16:58:46.345Z,27.30
2018-07-22T17:03:50.681Z,27.30
2018-07-22T17:08:53.919Z,27.10
2018-07-22T17:13:57.207Z,27.10
2018-07-22T17:19:00.473Z,27.20
2018-07-22T17:24:03.767Z,27.30
2018-07-22T17:29:07.029Z,27.40
2018-07-22T17:34:10.302Z,27.00
2018-07-22T17:39:13.606Z,27.00
2018-07-22T17:44:16.925Z,27.00
2018-07-22T17:49:20.206Z,26.70
2018-07-22T17:54:23.463Z,26.60
2018-07-22T17:59:27.073Z,26.50
2018-07-22T18:04:30.292Z,26.70
2018-07-22T18:09:33.640Z,26.50
2018-07-22T18:14:36.951Z,26.90
2018-07-22T18:19:40.280Z,27.10
2018-07-22T18:24:43.515Z,26.70
2018-07-22T18:29:46.774Z,26.90
2018-07-22T18:34:50.250Z,26.80
2018-07-22T18:39:53.573Z,27.00
2018-07-22T18:44:57.052Z,26.70
2018-07-22T18:50:00.401Z,26.30
2018-07-22T18:55:03.996Z,26.30
2018-07-22T19:00:07.371Z,26.30
2018-07-22T19:05:10.746Z,26.50
2018-07-22T19:10:15.675Z,26.40
2018-07-22T19:15:19.031Z,26.20
2018-07-22T19:20:22.439Z,26.30
2018-07-22T19:25:26.708Z,26.20
2018-07-22T19:30:30.137Z,25.90
2018-07-22T19:35:33.365Z,25.70
2018-07-22T19:40:36.636Z,25.70
2018-07-22T19:45:40.025Z,25.70
2018-07-22T19:50:43.301Z,25.50
2018-07-22T19:55:46.591Z,25.30
2018-07-22T20:00:49.910Z,25.20
2018-07-22T20:05:53.170Z,25.30
2018-07-22T20:10:56.754Z,25.30
2018-07-22T20:16:00.074Z,25.20
2018-07-22T20:21:03.412Z,25.30
2018-07-22T20:26:06.670Z,25.20
2018-07-22T20:31:10.114Z,25.50
2018-07-22T20:36:13.502Z,24.90
2018-07-22T20:41:16.981Z,25.00
2018-07-22T20:46:20.541Z,24.90
2018-07-22T20:51:23.836Z,25.10
2018-07-22T20:56:27.653Z,25.20
2018-07-22T21:01:31.062Z,25.20
2018-07-22T21:06:34.359Z,25.30
2018-07-22T21:11:48.954Z,25.40
2018-07-22T21:16:52.282Z,25.40
2018-07-22T21:21:55.543Z,25.10
2018-07-22T21:26:58.924Z,24.80
2018-07-22T21:32:02.204Z,24.60
2018-07-22T21:37:05.567Z,24.70
2018-07-22T21:42:09.676Z,24.30
2018-07-22T21:47:13.338Z,24.60
2018-07-22T21:52:16.589Z,24.50
2018-07-22T21:57:20.100Z,24.30
2018-07-22T22:02:28.883Z,24.50
2018-07-22T22:07:32.553Z,24.30
2018-07-22T22:12:35.802Z,24.10
2018-07-22T22:17:39.099Z,24.20
2018-07-22T22:22:42.367Z,24.30
2018-07-22T22:27:45.658Z,24.10
2018-07-22T22:32:49.146Z,24.20
2018-07-22T22:37:52.477Z,24.30
2018-07-22T22:42:55.747Z,24.40
2018-07-22T22:47:59.002Z,24.20
2018-07-22T22:53:02.295Z,24.20
2018-07-22T22:58:17.013Z,24.00
2018-07-22T23:03:20.468Z,23.90
2018-07-22T23:08:23.800Z,23.50
2018-07-22T23:13:27.016Z,23.40
2018-07-22T23:18:30.266Z,23.40
2018-07-22T23:23:33.551Z,23.50
2018-07-22T23:28:37.063Z,23.30
2018-07-22T23:33:40.378Z,23.30
2018-07-22T23:38:43.631Z,23.00
2018-07-22T23:43:46.890Z,22.90
2018-07-22T23:48:50.147Z,22.80
2018-07-22T23:53:53.490Z,22.70
2018-07-22T23:58:56.885Z,22.80
